sensor_id;sensor_type;location;lat;lon;timestamp;pressure;altitude;pressure_sealevel;temperature;humidity
7532;BME280;3807;49.030;8.714;2024-02-28T00:00:54;99364.75;;;10.87;67.60
7532;BME280;3807;49.030;8.714;2024-02-28T00:03:19;99377.66;;;10.82;67.05
7532;BME280;3807;49.030;8.714;2024-02-28T00:05:45;99383.31;;;10.65;67.93
7532;BME280;3807;49.030;8.714;2024-02-28T00:08:11;99375.34;;;10.49;68.13
7532;BME280;3807;49.030;8.714;2024-02-28T00:10:36;99376.28;;;10.47;68.60
7532;BME280;3807;49.030;8.714;2024-02-28T00:13:01;99371.94;;;10.49;68.22
7532;BME280;3807;49.030;8.714;2024-02-28T00:15:27;99377.88;;;10.21;68.60
7532;BME280;3807;49.030;8.714;2024-02-28T00:17:52;99379.25;;;10.33;68.54
7532;BME280;3807;49.030;8.714;2024-02-28T00:20:18;99385.81;;;10.40;68.29
7532;BME280;3807;49.030;8.714;2024-02-28T00:22:44;99388.31;;;10.42;68.15
7532;BME280;3807;49.030;8.714;2024-02-28T00:25:09;99389.13;;;10.42;68.11
7532;BME280;3807;49.030;8.714;2024-02-28T00:27:36;99390.94;;;10.39;68.54
7532;BME280;3807;49.030;8.714;2024-02-28T00:30:05;99389.94;;;10.44;67.96
7532;BME280;3807;49.030;8.714;2024-02-28T00:32:32;99396.09;;;10.37;68.36
7532;BME280;3807;49.030;8.714;2024-02-28T00:34:57;99399.53;;;10.36;68.98
7532;BME280;3807;49.030;8.714;2024-02-28T00:37:23;99395.41;;;10.32;68.19
7532;BME280;3807;49.030;8.714;2024-02-28T00:39:49;99397.31;;;10.24;68.63
7532;BME280;3807;49.030;8.714;2024-02-28T00:42:15;99405.25;;;10.15;68.35
7532;BME280;3807;49.030;8.714;2024-02-28T00:44:40;99403.97;;;10.00;68.81
7532;BME280;3807;49.030;8.714;2024-02-28T00:47:08;99403.88;;;10.05;69.67
7532;BME280;3807;49.030;8.714;2024-02-28T00:49:33;99410.28;;;10.16;68.91
7532;BME280;3807;49.030;8.714;2024-02-28T00:51:59;99404.59;;;10.08;68.95
7532;BME280;3807;49.030;8.714;2024-02-28T00:54:25;99414.81;;;10.07;69.88
7532;BME280;3807;49.030;8.714;2024-02-28T00:56:51;99410.56;;;10.07;70.12
7532;BME280;3807;49.030;8.714;2024-02-28T00:59:16;99407.31;;;10.02;70.13
7532;BME280;3807;49.030;8.714;2024-02-28T01:01:42;99407.47;;;9.97;70.15
7532;BME280;3807;49.030;8.714;2024-02-28T01:04:07;99409.81;;;10.03;70.38
7532;BME280;3807;49.030;8.714;2024-02-28T01:06:33;99417.34;;;10.08;69.56
7532;BME280;3807;49.030;8.714;2024-02-28T01:08:58;99413.25;;;10.02;70.22
7532;BME280;3807;49.030;8.714;2024-02-28T01:11:24;99417.53;;;10.00;69.95
7532;BME280;3807;49.030;8.714;2024-02-28T01:13:50;99409.22;;;9.95;70.19
7532;BME280;3807;49.030;8.714;2024-02-28T01:16:16;99416.03;;;9.93;69.68
7532;BME280;3807;49.030;8.714;2024-02-28T01:18:41;99415.19;;;9.94;70.08
7532;BME280;3807;49.030;8.714;2024-02-28T01:21:07;99420.38;;;9.91;70.17
7532;BME280;3807;49.030;8.714;2024-02-28T01:23:32;99412.72;;;9.91;70.02
7532;BME280;3807;49.030;8.714;2024-02-28T01:25:58;99412.59;;;9.96;69.57
7532;BME280;3807;49.030;8.714;2024-02-28T01:28:23;99419.69;;;9.85;70.26
7532;BME280;3807;49.030;8.714;2024-02-28T01:30:49;99417.06;;;9.88;70.26
7532;BME280;3807;49.030;8.714;2024-02-28T01:33:14;99422.28;;;9.83;69.80
7532;BME280;3807;49.030;8.714;2024-02-28T01:35:40;99417.38;;;9.77;69.95
7532;BME280;3807;49.030;8.714;2024-02-28T01:38:05;99413.97;;;9.78;69.83
7532;BME280;3807;49.030;8.714;2024-02-28T01:40:30;99415.75;;;9.74;70.17
7532;BME280;3807;49.030;8.714;2024-02-28T01:43:02;99409.94;;;9.71;70.62
7532;BME280;3807;49.030;8.714;2024-02-28T01:45:28;99405.66;;;9.71;70.12
7532;BME280;3807;49.030;8.714;2024-02-28T01:47:54;99414.22;;;9.69;70.42
7532;BME280;3807;49.030;8.714;2024-02-28T01:50:19;99413.44;;;9.67;70.32
7532;BME280;3807;49.030;8.714;2024-02-28T01:52:45;99411.78;;;9.66;70.09
7532;BME280;3807;49.030;8.714;2024-02-28T01:55:10;99409.13;;;9.69;69.61
7532;BME280;3807;49.030;8.714;2024-02-28T01:57:37;99411.88;;;9.61;70.04
7532;BME280;3807;49.030;8.714;2024-02-28T02:00:03;99406.94;;;9.57;70.21
7532;BME280;3807;49.030;8.714;2024-02-28T02:02:29;99407.81;;;9.56;70.36
7532;BME280;3807;49.030;8.714;2024-02-28T02:04:54;99415.56;;;9.51;70.17
7532;BME280;3807;49.030;8.714;2024-02-28T02:07:23;99421.59;;;9.47;70.31
7532;BME280;3807;49.030;8.714;2024-02-28T02:09:48;99430.88;;;9.48;70.34
7532;BME280;3807;49.030;8.714;2024-02-28T02:12:15;99427.53;;;9.47;70.17
7532;BME280;3807;49.030;8.714;2024-02-28T02:14:41;99428.47;;;9.43;70.52
7532;BME280;3807;49.030;8.714;2024-02-28T02:17:07;99440.31;;;9.44;70.57
7532;BME280;3807;49.030;8.714;2024-02-28T02:19:32;99437.91;;;9.40;70.83
7532;BME280;3807;49.030;8.714;2024-02-28T02:21:58;99449.91;;;9.35;70.20
7532;BME280;3807;49.030;8.714;2024-02-28T02:24:24;99444.91;;;9.32;70.28
7532;BME280;3807;49.030;8.714;2024-02-28T02:26:55;99449.16;;;9.31;70.42
7532;BME280;3807;49.030;8.714;2024-02-28T02:29:20;99449.22;;;9.28;70.61
7532;BME280;3807;49.030;8.714;2024-02-28T02:31:45;99452.63;;;9.27;70.62
7532;BME280;3807;49.030;8.714;2024-02-28T02:34:11;99457.75;;;9.25;70.75
7532;BME280;3807;49.030;8.714;2024-02-28T02:36:36;99460.44;;;9.21;70.48
7532;BME280;3807;49.030;8.714;2024-02-28T02:39:02;99468.06;;;9.21;70.47
7532;BME280;3807;49.030;8.714;2024-02-28T02:41:27;99465.34;;;9.27;70.14
7532;BME280;3807;49.030;8.714;2024-02-28T02:43:53;99475.63;;;9.22;70.88
7532;BME280;3807;49.030;8.714;2024-02-28T02:46:18;99467.19;;;9.22;70.19
7532;BME280;3807;49.030;8.714;2024-02-28T02:48:44;99473.75;;;9.29;70.30
7532;BME280;3807;49.030;8.714;2024-02-28T02:51:09;99481.47;;;9.26;69.59
7532;BME280;3807;49.030;8.714;2024-02-28T02:53:34;99488.81;;;9.37;68.36
7532;BME280;3807;49.030;8.714;2024-02-28T02:56:00;99489.91;;;9.28;68.95
7532;BME280;3807;49.030;8.714;2024-02-28T02:58:25;99501.03;;;9.22;69.86
7532;BME280;3807;49.030;8.714;2024-02-28T03:00:52;99506.19;;;9.19;69.26
7532;BME280;3807;49.030;8.714;2024-02-28T03:03:17;99507.03;;;9.20;68.75
7532;BME280;3807;49.030;8.714;2024-02-28T03:05:42;99509.56;;;9.20;68.70
7532;BME280;3807;49.030;8.714;2024-02-28T03:08:08;99515.31;;;9.28;68.41
7532;BME280;3807;49.030;8.714;2024-02-28T03:10:33;99518.06;;;9.19;68.65
7532;BME280;3807;49.030;8.714;2024-02-28T03:12:58;99521.66;;;9.44;67.51
7532;BME280;3807;49.030;8.714;2024-02-28T03:15:25;99518.78;;;9.24;68.75
7532;BME280;3807;49.030;8.714;2024-02-28T03:17:51;99517.34;;;9.14;68.43
7532;BME280;3807;49.030;8.714;2024-02-28T03:20:16;99515.25;;;9.29;68.54
7532;BME280;3807;49.030;8.714;2024-02-28T03:22:41;99515.66;;;9.14;68.90
7532;BME280;3807;49.030;8.714;2024-02-28T03:25:07;99514.06;;;9.09;69.81
7532;BME280;3807;49.030;8.714;2024-02-28T03:27:33;99519.78;;;9.17;68.67
7532;BME280;3807;49.030;8.714;2024-02-28T03:29:58;99517.38;;;9.12;69.20
7532;BME280;3807;49.030;8.714;2024-02-28T03:32:23;99519.22;;;9.05;69.57
7532;BME280;3807;49.030;8.714;2024-02-28T03:34:49;99515.22;;;9.31;67.79
7532;BME280;3807;49.030;8.714;2024-02-28T03:37:14;99516.81;;;9.35;67.62
7532;BME280;3807;49.030;8.714;2024-02-28T03:39:40;99526.38;;;9.25;68.02
7532;BME280;3807;49.030;8.714;2024-02-28T03:42:05;99526.41;;;9.24;67.98
7532;BME280;3807;49.030;8.714;2024-02-28T03:44:31;99533.50;;;9.45;67.25
7532;BME280;3807;49.030;8.714;2024-02-28T03:46:56;99523.72;;;9.30;67.59
7532;BME280;3807;49.030;8.714;2024-02-28T03:49:21;99527.66;;;9.42;67.06
7532;BME280;3807;49.030;8.714;2024-02-28T03:51:47;99531.19;;;9.36;67.65
7532;BME280;3807;49.030;8.714;2024-02-28T03:54:12;99529.00;;;9.22;67.94
7532;BME280;3807;49.030;8.714;2024-02-28T03:56:37;99538.34;;;9.20;68.02
7532;BME280;3807;49.030;8.714;2024-02-28T03:59:03;99537.94;;;9.37;67.53
7532;BME280;3807;49.030;8.714;2024-02-28T04:01:29;99541.63;;;9.24;67.87
7532;BME280;3807;49.030;8.714;2024-02-28T04:03:55;99549.91;;;8.98;67.77
7532;BME280;3807;49.030;8.714;2024-02-28T04:06:20;99550.22;;;8.84;69.04
7532;BME280;3807;49.030;8.714;2024-02-28T04:08:45;99544.56;;;9.09;68.51
7532;BME280;3807;49.030;8.714;2024-02-28T04:11:11;99544.56;;;9.09;68.00
7532;BME280;3807;49.030;8.714;2024-02-28T04:13:36;99544.53;;;9.10;67.82
7532;BME280;3807;49.030;8.714;2024-02-28T04:16:02;99556.38;;;9.11;67.99
7532;BME280;3807;49.030;8.714;2024-02-28T04:18:28;99552.63;;;8.89;68.47
7532;BME280;3807;49.030;8.714;2024-02-28T04:20:54;99557.19;;;8.74;69.08
7532;BME280;3807;49.030;8.714;2024-02-28T04:23:20;99559.84;;;8.70;69.26
7532;BME280;3807;49.030;8.714;2024-02-28T04:25:45;99563.03;;;8.79;69.00
7532;BME280;3807;49.030;8.714;2024-02-28T04:28:10;99569.66;;;8.46;69.97
7532;BME280;3807;49.030;8.714;2024-02-28T04:30:36;99571.00;;;8.63;69.91
7532;BME280;3807;49.030;8.714;2024-02-28T04:33:01;99571.06;;;8.59;70.31
7532;BME280;3807;49.030;8.714;2024-02-28T04:35:26;99574.59;;;8.52;70.62
7532;BME280;3807;49.030;8.714;2024-02-28T04:37:52;99577.69;;;8.67;70.10
7532;BME280;3807;49.030;8.714;2024-02-28T04:40:17;99580.50;;;8.92;68.88
7532;BME280;3807;49.030;8.714;2024-02-28T04:42:43;99584.19;;;9.16;67.85
7532;BME280;3807;49.030;8.714;2024-02-28T04:45:09;99590.50;;;8.99;68.61
7532;BME280;3807;49.030;8.714;2024-02-28T04:47:34;99592.97;;;9.02;68.18
7532;BME280;3807;49.030;8.714;2024-02-28T04:50:01;99596.94;;;9.14;67.68
7532;BME280;3807;49.030;8.714;2024-02-28T04:52:27;99599.63;;;9.08;68.04
7532;BME280;3807;49.030;8.714;2024-02-28T04:54:52;99596.44;;;8.98;68.53
7532;BME280;3807;49.030;8.714;2024-02-28T04:57:19;99607.13;;;9.14;67.94
7532;BME280;3807;49.030;8.714;2024-02-28T04:59:44;99606.19;;;9.17;67.71
7532;BME280;3807;49.030;8.714;2024-02-28T05:02:10;99620.66;;;9.15;67.85
7532;BME280;3807;49.030;8.714;2024-02-28T05:04:36;99608.78;;;9.15;67.70
7532;BME280;3807;49.030;8.714;2024-02-28T05:07:01;99619.13;;;9.06;67.80
7532;BME280;3807;49.030;8.714;2024-02-28T05:09:27;99621.84;;;9.00;68.39
7532;BME280;3807;49.030;8.714;2024-02-28T05:11:52;99626.75;;;9.07;67.66
7532;BME280;3807;49.030;8.714;2024-02-28T05:14:17;99624.25;;;9.04;68.17
7532;BME280;3807;49.030;8.714;2024-02-28T05:16:43;99631.13;;;9.01;68.14
7532;BME280;3807;49.030;8.714;2024-02-28T05:19:08;99631.22;;;8.96;68.43
7532;BME280;3807;49.030;8.714;2024-02-28T05:21:43;99623.44;;;9.02;68.07
7532;BME280;3807;49.030;8.714;2024-02-28T05:24:09;99621.72;;;8.66;68.99
7532;BME280;3807;49.030;8.714;2024-02-28T05:26:35;99621.59;;;8.72;68.83
7532;BME280;3807;49.030;8.714;2024-02-28T05:29:01;99622.59;;;8.63;69.31
7532;BME280;3807;49.030;8.714;2024-02-28T05:31:27;99623.09;;;8.39;69.65
7532;BME280;3807;49.030;8.714;2024-02-28T05:33:54;99621.41;;;8.39;70.48
7532;BME280;3807;49.030;8.714;2024-02-28T05:36:21;99622.56;;;8.65;69.24
7532;BME280;3807;49.030;8.714;2024-02-28T05:38:47;99619.72;;;8.78;68.68
7532;BME280;3807;49.030;8.714;2024-02-28T05:41:12;99622.84;;;8.93;68.38
7532;BME280;3807;49.030;8.714;2024-02-28T05:43:40;99621.97;;;8.92;67.94
7532;BME280;3807;49.030;8.714;2024-02-28T05:46:05;99612.75;;;8.88;68.05
7532;BME280;3807;49.030;8.714;2024-02-28T05:48:31;99612.44;;;8.63;68.83
7532;BME280;3807;49.030;8.714;2024-02-28T05:50:56;99624.81;;;8.78;68.19
7532;BME280;3807;49.030;8.714;2024-02-28T05:53:22;99625.91;;;8.68;68.74
7532;BME280;3807;49.030;8.714;2024-02-28T05:55:52;99625.25;;;8.58;69.48
7532;BME280;3807;49.030;8.714;2024-02-28T05:58:19;99627.72;;;8.62;68.92
7532;BME280;3807;49.030;8.714;2024-02-28T06:00:44;99631.94;;;8.63;68.99
7532;BME280;3807;49.030;8.714;2024-02-28T06:03:09;99629.22;;;8.72;68.54
7532;BME280;3807;49.030;8.714;2024-02-28T06:05:35;99641.28;;;8.61;68.77
7532;BME280;3807;49.030;8.714;2024-02-28T06:08:00;99635.53;;;8.52;68.85
7532;BME280;3807;49.030;8.714;2024-02-28T06:10:25;99640.69;;;8.48;69.24
7532;BME280;3807;49.030;8.714;2024-02-28T06:12:51;99643.03;;;8.58;68.86
7532;BME280;3807;49.030;8.714;2024-02-28T06:15:17;99650.56;;;8.62;68.74
7532;BME280;3807;49.030;8.714;2024-02-28T06:17:42;99647.31;;;8.55;68.84
7532;BME280;3807;49.030;8.714;2024-02-28T06:20:08;99642.09;;;8.61;68.44
7532;BME280;3807;49.030;8.714;2024-02-28T06:22:33;99646.72;;;8.42;69.36
7532;BME280;3807;49.030;8.714;2024-02-28T06:24:58;99651.59;;;8.53;68.59
7532;BME280;3807;49.030;8.714;2024-02-28T06:27:24;99652.41;;;8.55;68.22
7532;BME280;3807;49.030;8.714;2024-02-28T06:29:49;99657.69;;;8.44;68.57
7532;BME280;3807;49.030;8.714;2024-02-28T06:32:14;99664.47;;;8.42;68.88
7532;BME280;3807;49.030;8.714;2024-02-28T06:34:40;99666.13;;;8.45;68.64
7532;BME280;3807;49.030;8.714;2024-02-28T06:37:07;99662.13;;;8.31;69.39
7532;BME280;3807;49.030;8.714;2024-02-28T06:39:32;99669.50;;;8.45;68.48
7532;BME280;3807;49.030;8.714;2024-02-28T06:41:57;99672.03;;;8.45;68.25
7532;BME280;3807;49.030;8.714;2024-02-28T06:44:23;99669.63;;;8.39;68.65
7532;BME280;3807;49.030;8.714;2024-02-28T06:46:48;99684.69;;;8.48;68.61
7532;BME280;3807;49.030;8.714;2024-02-28T06:49:13;99686.34;;;8.49;68.38
7532;BME280;3807;49.030;8.714;2024-02-28T06:51:39;99688.38;;;8.29;68.85
7532;BME280;3807;49.030;8.714;2024-02-28T06:54:04;99689.25;;;8.28;68.54
7532;BME280;3807;49.030;8.714;2024-02-28T06:56:30;99699.44;;;8.25;68.88
7532;BME280;3807;49.030;8.714;2024-02-28T06:58:56;99700.31;;;8.24;68.29
7532;BME280;3807;49.030;8.714;2024-02-28T07:01:21;99704.56;;;8.22;68.99
7532;BME280;3807;49.030;8.714;2024-02-28T07:03:46;99711.06;;;7.88;69.97
7532;BME280;3807;49.030;8.714;2024-02-28T07:06:12;99718.09;;;7.71;70.83
7532;BME280;3807;49.030;8.714;2024-02-28T07:08:37;99724.00;;;7.72;70.21
7532;BME280;3807;49.030;8.714;2024-02-28T07:11:03;99728.94;;;7.79;70.73
7532;BME280;3807;49.030;8.714;2024-02-28T07:13:29;99729.75;;;7.84;69.82
7532;BME280;3807;49.030;8.714;2024-02-28T07:15:54;99732.41;;;7.74;70.67
7532;BME280;3807;49.030;8.714;2024-02-28T07:18:20;99732.38;;;7.78;70.48
7532;BME280;3807;49.030;8.714;2024-02-28T07:20:46;99740.66;;;7.88;70.10
7532;BME280;3807;49.030;8.714;2024-02-28T07:23:11;99736.34;;;7.93;69.98
7532;BME280;3807;49.030;8.714;2024-02-28T07:25:37;99745.66;;;7.91;69.93
7532;BME280;3807;49.030;8.714;2024-02-28T07:28:03;99753.44;;;7.82;70.07
7532;BME280;3807;49.030;8.714;2024-02-28T07:30:28;99751.03;;;7.73;70.94
7532;BME280;3807;49.030;8.714;2024-02-28T07:32:54;99747.56;;;7.78;70.39
7532;BME280;3807;49.030;8.714;2024-02-28T07:35:20;99754.50;;;7.67;70.97
7532;BME280;3807;49.030;8.714;2024-02-28T07:37:46;99748.56;;;7.68;71.00
7532;BME280;3807;49.030;8.714;2024-02-28T07:40:12;99755.06;;;7.86;70.40
7532;BME280;3807;49.030;8.714;2024-02-28T07:42:37;99753.31;;;7.90;70.15
7532;BME280;3807;49.030;8.714;2024-02-28T07:45:03;99765.81;;;8.00;69.62
7532;BME280;3807;49.030;8.714;2024-02-28T07:47:28;99766.34;;;8.21;69.10
7532;BME280;3807;49.030;8.714;2024-02-28T07:49:53;99764.75;;;8.14;69.52
7532;BME280;3807;49.030;8.714;2024-02-28T07:52:19;99774.47;;;7.88;70.24
7532;BME280;3807;49.030;8.714;2024-02-28T07:54:45;99786.41;;;7.80;70.74
7532;BME280;3807;49.030;8.714;2024-02-28T07:57:11;99782.03;;;7.92;70.13
7532;BME280;3807;49.030;8.714;2024-02-28T07:59:40;99784.81;;;7.73;70.68
7532;BME280;3807;49.030;8.714;2024-02-28T08:02:05;99779.63;;;7.82;70.72
7532;BME280;3807;49.030;8.714;2024-02-28T08:04:31;99773.25;;;8.11;69.27
7532;BME280;3807;49.030;8.714;2024-02-28T08:06:56;99785.75;;;8.23;69.05
7532;BME280;3807;49.030;8.714;2024-02-28T08:09:22;99786.50;;;8.28;68.90
7532;BME280;3807;49.030;8.714;2024-02-28T08:11:48;99783.31;;;8.16;69.04
7532;BME280;3807;49.030;8.714;2024-02-28T08:14:13;99786.78;;;8.11;69.56
7532;BME280;3807;49.030;8.714;2024-02-28T08:16:38;99786.81;;;8.08;69.82
7532;BME280;3807;49.030;8.714;2024-02-28T08:19:04;99789.91;;;8.26;68.95
7532;BME280;3807;49.030;8.714;2024-02-28T08:21:29;99791.63;;;8.27;69.23
7532;BME280;3807;49.030;8.714;2024-02-28T08:23:54;99791.88;;;8.10;69.35
7532;BME280;3807;49.030;8.714;2024-02-28T08:26:20;99792.63;;;8.17;69.46
7532;BME280;3807;49.030;8.714;2024-02-28T08:28:45;99784.84;;;8.26;69.06
7532;BME280;3807;49.030;8.714;2024-02-28T08:31:11;99788.25;;;8.25;69.20
7532;BME280;3807;49.030;8.714;2024-02-28T08:33:36;99794.19;;;8.24;69.04
7532;BME280;3807;49.030;8.714;2024-02-28T08:36:01;99794.91;;;8.33;69.05
7532;BME280;3807;49.030;8.714;2024-02-28T08:38:27;99796.00;;;8.17;69.54
7532;BME280;3807;49.030;8.714;2024-02-28T08:40:52;99798.22;;;8.37;68.85
7532;BME280;3807;49.030;8.714;2024-02-28T08:43:18;99791.19;;;8.53;68.23
7532;BME280;3807;49.030;8.714;2024-02-28T08:45:43;99798.91;;;8.48;68.55
7532;BME280;3807;49.030;8.714;2024-02-28T08:48:08;99797.38;;;8.38;69.08
7532;BME280;3807;49.030;8.714;2024-02-28T08:50:34;99789.88;;;8.29;69.08
7532;BME280;3807;49.030;8.714;2024-02-28T08:52:59;99793.09;;;8.40;69.03
7532;BME280;3807;49.030;8.714;2024-02-28T08:55:25;99795.34;;;8.57;68.88
7532;BME280;3807;49.030;8.714;2024-02-28T08:57:50;99798.75;;;8.56;68.15
7532;BME280;3807;49.030;8.714;2024-02-28T09:00:16;99802.91;;;8.62;68.67
7532;BME280;3807;49.030;8.714;2024-02-28T09:02:42;99801.16;;;8.64;68.63
7532;BME280;3807;49.030;8.714;2024-02-28T09:05:08;99799.19;;;8.78;68.21
7532;BME280;3807;49.030;8.714;2024-02-28T09:07:34;99801.19;;;8.62;68.08
7532;BME280;3807;49.030;8.714;2024-02-28T09:10:03;99796.84;;;8.67;68.47
7532;BME280;3807;49.030;8.714;2024-02-28T09:12:29;99787.53;;;8.69;67.75
7532;BME280;3807;49.030;8.714;2024-02-28T09:14:54;99798.72;;;8.57;68.47
7532;BME280;3807;49.030;8.714;2024-02-28T09:17:21;99792.75;;;8.62;68.53
7532;BME280;3807;49.030;8.714;2024-02-28T09:19:47;99791.84;;;8.64;68.88
7532;BME280;3807;49.030;8.714;2024-02-28T09:22:12;99796.44;;;8.90;68.51
7532;BME280;3807;49.030;8.714;2024-02-28T09:24:37;99797.22;;;8.92;67.58
7532;BME280;3807;49.030;8.714;2024-02-28T09:27:03;99804.16;;;8.84;67.86
7532;BME280;3807;49.030;8.714;2024-02-28T09:29:28;99816.25;;;8.71;68.13
7532;BME280;3807;49.030;8.714;2024-02-28T09:31:54;99807.59;;;8.81;68.45
7532;BME280;3807;49.030;8.714;2024-02-28T09:34:19;99804.94;;;8.89;68.11
7532;BME280;3807;49.030;8.714;2024-02-28T09:36:45;99810.91;;;8.87;67.70
7532;BME280;3807;49.030;8.714;2024-02-28T09:39:12;99810.75;;;8.94;67.73
7532;BME280;3807;49.030;8.714;2024-02-28T09:41:38;99814.22;;;8.90;67.53
7532;BME280;3807;49.030;8.714;2024-02-28T09:44:06;99818.00;;;9.14;67.46
7532;BME280;3807;49.030;8.714;2024-02-28T09:46:32;99813.03;;;9.08;67.49
7532;BME280;3807;49.030;8.714;2024-02-28T09:49:04;99809.50;;;9.15;67.42
7532;BME280;3807;49.030;8.714;2024-02-28T09:51:33;99807.13;;;9.07;67.30
7532;BME280;3807;49.030;8.714;2024-02-28T09:54:04;99812.16;;;9.09;67.18
7532;BME280;3807;49.030;8.714;2024-02-28T09:56:31;99814.44;;;9.23;67.46
7532;BME280;3807;49.030;8.714;2024-02-28T09:58:57;99819.72;;;9.12;67.11
7532;BME280;3807;49.030;8.714;2024-02-28T10:01:22;99824.72;;;9.17;67.29
7532;BME280;3807;49.030;8.714;2024-02-28T10:03:51;99832.34;;;9.17;67.39
7532;BME280;3807;49.030;8.714;2024-02-28T10:06:18;99829.72;;;9.21;67.42
7532;BME280;3807;49.030;8.714;2024-02-28T10:08:43;99826.38;;;9.19;67.89
7532;BME280;3807;49.030;8.714;2024-02-28T10:11:17;99829.72;;;9.21;67.20
7532;BME280;3807;49.030;8.714;2024-02-28T10:13:42;99832.22;;;9.23;67.54
7532;BME280;3807;49.030;8.714;2024-02-28T10:16:08;99837.84;;;9.39;66.45
7532;BME280;3807;49.030;8.714;2024-02-28T10:18:33;99832.94;;;9.31;67.05
7532;BME280;3807;49.030;8.714;2024-02-28T10:20:59;99836.41;;;9.25;67.08
7532;BME280;3807;49.030;8.714;2024-02-28T10:23:26;99838.78;;;9.35;67.36
7532;BME280;3807;49.030;8.714;2024-02-28T10:25:52;99843.09;;;9.31;66.88
7532;BME280;3807;49.030;8.714;2024-02-28T10:28:17;99843.28;;;9.20;67.85
7532;BME280;3807;49.030;8.714;2024-02-28T10:30:43;99852.47;;;9.27;67.40
7532;BME280;3807;49.030;8.714;2024-02-28T10:33:15;99853.44;;;9.22;67.45
7532;BME280;3807;49.030;8.714;2024-02-28T10:35:42;99863.47;;;9.28;67.55
7532;BME280;3807;49.030;8.714;2024-02-28T10:38:13;99873.44;;;9.37;67.06
7532;BME280;3807;49.030;8.714;2024-02-28T10:40:42;99874.31;;;9.36;67.35
7532;BME280;3807;49.030;8.714;2024-02-28T10:43:10;99875.94;;;9.40;67.62
7532;BME280;3807;49.030;8.714;2024-02-28T10:45:37;99873.44;;;9.39;67.46
7532;BME280;3807;49.030;8.714;2024-02-28T10:48:05;99874.94;;;9.47;67.01
7532;BME280;3807;49.030;8.714;2024-02-28T10:50:31;99882.69;;;9.41;67.25
7532;BME280;3807;49.030;8.714;2024-02-28T10:53:04;99876.53;;;9.53;67.26
7532;BME280;3807;49.030;8.714;2024-02-28T10:55:34;99883.28;;;9.54;67.03
7532;BME280;3807;49.030;8.714;2024-02-28T10:58:06;99873.06;;;9.57;67.36
7532;BME280;3807;49.030;8.714;2024-02-28T11:00:33;99879.63;;;9.67;66.61
7532;BME280;3807;49.030;8.714;2024-02-28T11:03:00;99877.25;;;9.60;67.25
7532;BME280;3807;49.030;8.714;2024-02-28T11:05:57;99877.81;;;9.72;66.91
7532;BME280;3807;49.030;8.714;2024-02-28T11:08:24;99877.25;;;9.60;67.10
7532;BME280;3807;49.030;8.714;2024-02-28T11:11:03;99875.44;;;9.66;67.16
7532;BME280;3807;49.030;8.714;2024-02-28T11:13:33;99881.06;;;9.79;66.60
7532;BME280;3807;49.030;8.714;2024-02-28T11:16:09;99878.50;;;9.81;66.77
7532;BME280;3807;49.030;8.714;2024-02-28T11:18:34;99880.34;;;9.74;66.86
7532;BME280;3807;49.030;8.714;2024-02-28T11:20:59;99874.44;;;9.72;66.52
7532;BME280;3807;49.030;8.714;2024-02-28T11:23:25;99872.66;;;9.77;66.87
7532;BME280;3807;49.030;8.714;2024-02-28T11:25:51;99870.75;;;9.87;66.35
7532;BME280;3807;49.030;8.714;2024-02-28T11:28:17;99872.41;;;9.88;66.52
7532;BME280;3807;49.030;8.714;2024-02-28T11:30:42;99874.13;;;9.87;66.52
7532;BME280;3807;49.030;8.714;2024-02-28T11:33:07;99870.53;;;9.96;66.39
7532;BME280;3807;49.030;8.714;2024-02-28T11:35:34;99874.59;;;10.05;65.74
7532;BME280;3807;49.030;8.714;2024-02-28T11:38:00;99873.66;;;10.07;66.39
7532;BME280;3807;49.030;8.714;2024-02-28T11:40:26;99876.78;;;10.20;66.18
7532;BME280;3807;49.030;8.714;2024-02-28T11:42:52;99879.22;;;10.26;65.64
7532;BME280;3807;49.030;8.714;2024-02-28T11:45:18;99885.09;;;10.28;65.02
7532;BME280;3807;49.030;8.714;2024-02-28T11:47:44;99879.94;;;10.33;65.33
7532;BME280;3807;49.030;8.714;2024-02-28T11:50:10;99884.09;;;10.35;65.34
7532;BME280;3807;49.030;8.714;2024-02-28T11:52:35;99889.22;;;10.34;65.67
7532;BME280;3807;49.030;8.714;2024-02-28T11:55:00;99889.84;;;10.43;65.26
7532;BME280;3807;49.030;8.714;2024-02-28T11:57:26;99882.97;;;10.47;65.29
7532;BME280;3807;49.030;8.714;2024-02-28T11:59:51;99879.63;;;10.45;64.94
7532;BME280;3807;49.030;8.714;2024-02-28T12:02:18;99872.53;;;10.56;64.80
7532;BME280;3807;49.030;8.714;2024-02-28T12:04:44;99876.06;;;10.52;64.82
7532;BME280;3807;49.030;8.714;2024-02-28T12:07:10;99870.19;;;10.48;64.93
7532;BME280;3807;49.030;8.714;2024-02-28T12:09:35;99869.09;;;10.60;64.61
7532;BME280;3807;49.030;8.714;2024-02-28T12:12:01;99870.88;;;10.57;64.48
7532;BME280;3807;49.030;8.714;2024-02-28T12:14:27;99864.69;;;10.65;64.61
7532;BME280;3807;49.030;8.714;2024-02-28T12:16:52;99861.84;;;10.78;64.37
7532;BME280;3807;49.030;8.714;2024-02-28T12:19:17;99865.53;;;10.66;64.51
7532;BME280;3807;49.030;8.714;2024-02-28T12:21:45;99859.41;;;10.73;64.31
7532;BME280;3807;49.030;8.714;2024-02-28T12:24:11;99860.00;;;10.83;64.24
7532;BME280;3807;49.030;8.714;2024-02-28T12:26:37;99852.56;;;10.75;64.61
7532;BME280;3807;49.030;8.714;2024-02-28T12:29:02;99847.25;;;10.83;64.44
7532;BME280;3807;49.030;8.714;2024-02-28T12:31:28;99840.50;;;10.82;65.21
7532;BME280;3807;49.030;8.714;2024-02-28T12:33:53;99839.50;;;10.87;64.63
7532;BME280;3807;49.030;8.714;2024-02-28T12:36:19;99835.25;;;10.88;64.89
7532;BME280;3807;49.030;8.714;2024-02-28T12:38:45;99828.25;;;10.94;64.68
7532;BME280;3807;49.030;8.714;2024-02-28T12:41:10;99828.84;;;11.06;63.55
7532;BME280;3807;49.030;8.714;2024-02-28T12:43:36;99832.13;;;11.09;63.20
7532;BME280;3807;49.030;8.714;2024-02-28T12:46:01;99817.50;;;11.16;63.54
7532;BME280;3807;49.030;8.714;2024-02-28T12:48:27;99820.00;;;11.17;63.03
7532;BME280;3807;49.030;8.714;2024-02-28T12:50:52;99817.44;;;11.17;63.41
7532;BME280;3807;49.030;8.714;2024-02-28T12:53:18;99811.28;;;11.25;62.89
7532;BME280;3807;49.030;8.714;2024-02-28T12:55:43;99811.56;;;11.45;63.05
7532;BME280;3807;49.030;8.714;2024-02-28T12:58:10;99805.72;;;11.41;62.81
7532;BME280;3807;49.030;8.714;2024-02-28T13:00:36;99805.47;;;11.51;62.99
7532;BME280;3807;49.030;8.714;2024-02-28T13:03:01;99799.66;;;11.45;62.89
7532;BME280;3807;49.030;8.714;2024-02-28T13:05:28;99806.22;;;11.53;62.39
7532;BME280;3807;49.030;8.714;2024-02-28T13:07:53;99797.50;;;11.61;62.25
7532;BME280;3807;49.030;8.714;2024-02-28T13:10:19;99800.69;;;11.68;62.05
7532;BME280;3807;49.030;8.714;2024-02-28T13:12:44;99794.63;;;11.71;61.48
7532;BME280;3807;49.030;8.714;2024-02-28T13:15:09;99799.81;;;11.69;62.12
7532;BME280;3807;49.030;8.714;2024-02-28T13:17:35;99801.47;;;11.70;62.00
7532;BME280;3807;49.030;8.714;2024-02-28T13:20:01;99801.44;;;11.72;62.10
7532;BME280;3807;49.030;8.714;2024-02-28T13:22:28;99808.84;;;11.79;62.77